地図

経路データ

SID SEASON NUMBER BASIN SUBBASIN NAME ISO_TIME NATURE LAT LON WMO_WIND WMO_PRES WMO_AGENCY TRACK_TYPE DIST2LAND LANDFALL IFLAG USA_AGENCY USA_ATCF_ID USA_LAT USA_LON USA_RECORD USA_STATUS USA_WIND USA_PRES USA_SSHS USA_R34_NE USA_R34_SE USA_R34_SW USA_R34_NW USA_R50_NE USA_R50_SE USA_R50_SW USA_R50_NW USA_R64_NE USA_R64_SE USA_R64_SW USA_R64_NW USA_POCI USA_ROCI USA_RMW USA_EYE TOKYO_LAT TOKYO_LON TOKYO_GRADE TOKYO_WIND TOKYO_PRES TOKYO_R50_DIR TOKYO_R50_LONG TOKYO_R50_SHORT TOKYO_R30_DIR TOKYO_R30_LONG TOKYO_R30_SHORT TOKYO_LAND CMA_LAT CMA_LON CMA_CAT CMA_WIND CMA_PRES HKO_LAT HKO_LON HKO_CAT HKO_WIND HKO_PRES NEWDELHI_LAT NEWDELHI_LON NEWDELHI_GRADE NEWDELHI_WIND NEWDELHI_PRES NEWDELHI_CI NEWDELHI_DP NEWDELHI_POCI REUNION_LAT REUNION_LON REUNION_TYPE REUNION_WIND REUNION_PRES REUNION_TNUM REUNION_CI REUNION_RMW REUNION_R34_NE REUNION_R34_SE REUNION_R34_SW REUNION_R34_NW REUNION_R50_NE REUNION_R50_SE REUNION_R50_SW REUNION_R50_NW REUNION_R64_NE REUNION_R64_SE REUNION_R64_SW REUNION_R64_NW BOM_LAT BOM_LON BOM_TYPE BOM_WIND BOM_PRES BOM_TNUM BOM_CI BOM_RMW BOM_R34_NE BOM_R34_SE BOM_R34_SW BOM_R34_NW BOM_R50_NE BOM_R50_SE BOM_R50_SW BOM_R50_NW BOM_R64_NE BOM_R64_SE BOM_R64_SW BOM_R64_NW BOM_ROCI BOM_POCI BOM_EYE BOM_POS_METHOD BOM_PRES_METHOD NADI_LAT NADI_LON NADI_CAT NADI_WIND NADI_PRES WELLINGTON_LAT WELLINGTON_LON WELLINGTON_WIND WELLINGTON_PRES DS824_LAT DS824_LON DS824_STAGE DS824_WIND DS824_PRES TD9636_LAT TD9636_LON TD9636_STAGE TD9636_WIND TD9636_PRES TD9635_LAT TD9635_LON TD9635_WIND TD9635_PRES TD9635_ROCI NEUMANN_LAT NEUMANN_LON NEUMANN_CLASS NEUMANN_WIND NEUMANN_PRES MLC_LAT MLC_LON MLC_CLASS MLC_WIND MLC_PRES USA_GUST BOM_GUST BOM_GUST_PER REUNION_GUST REUNION_GUST_PER USA_SEAHGT USA_SEARAD_NE USA_SEARAD_SE USA_SEARAD_SW USA_SEARAD_NW STORM_SPEED STORM_DIR
1854258N13329 1854 11 NA NA NOT_NAMED 1854-09-15 06:00:00 TS 12.7000 -31.0000 main 1476 1476 _____________O -1 12.7000 -31.0000 TD 30 14 287
1854258N13329 1854 11 NA NA NOT_NAMED 1854-09-15 09:00:00 TS 12.9004 -31.6623 main 1547 1547 _____________P -1 12.9004 -31.6623 TD 30 13 288
1854258N13329 1854 11 NA NA NOT_NAMED 1854-09-15 12:00:00 TS 13.1000 -32.3000 main 1608 1608 _____________O -1 13.1000 -32.3000 TD 30 13 288
1854258N13329 1854 11 NA NA NOT_NAMED 1854-09-15 15:00:00 TS 13.2998 -32.9001 main 1669 1669 _____________P -1 13.2998 -32.9001 TD 30 12 289
1854258N13329 1854 11 NA NA NOT_NAMED 1854-09-15 18:00:00 TS 13.5000 -33.5000 main 1731 1731 _____________O -1 13.5000 -33.5000 TD 30 13 288
1854258N13329 1854 11 NA NA NOT_NAMED 1854-09-15 21:00:00 TS 13.6999 -34.1501 main 1804 1804 _____________P -1 13.6999 -34.1501 TD 30 13 288
1854258N13329 1854 11 NA NA NOT_NAMED 1854-09-16 00:00:00 TS 13.9000 -34.8000 main 1866 1866 _____________O -1 13.9000 -34.8000 TD 30 13 288
1854258N13329 1854 11 NA NA NOT_NAMED 1854-09-16 03:00:00 TS 14.0997 -35.4001 main 1929 1929 _____________P -1 14.0997 -35.4001 TD 32 12 289
1854258N13329 1854 11 NA NA NOT_NAMED 1854-09-16 06:00:00 TS 14.3000 -36.0000 main 1972 1969 _____________O -1 14.3000 -36.0000 TS 35 13 288
1854258N13329 1854 11 NA NA NOT_NAMED 1854-09-16 09:00:00 TS 14.4999 -36.6501 main 1966 1926 _____________P -1 14.4999 -36.6501 TS 35 13 288
1854258N13329 1854 11 NA NA NOT_NAMED 1854-09-16 12:00:00 TS 14.7000 -37.3000 main 1926 1888 _____________O -1 14.7000 -37.3000 TS 35 13 288
1854258N13329 1854 11 NA NA NOT_NAMED 1854-09-16 15:00:00 TS 14.8997 -37.9002 main 1888 1851 _____________P -1 14.8997 -37.9002 TS 35 12 289
1854258N13329 1854 11 NA NA NOT_NAMED 1854-09-16 18:00:00 TS 15.1000 -38.5000 main 1851 1817 _____________O -1 15.1000 -38.5000 TS 35 13 288
1854258N13329 1854 11 NA NA NOT_NAMED 1854-09-16 21:00:00 TS 15.2924 -39.1502 main 1809 1776 _____________P -1 15.2924 -39.1502 TS 35 13 288
1854258N13329 1854 11 NA NA NOT_NAMED 1854-09-17 00:00:00 TS 15.5000 -39.8000 main 1776 1746 _____________O -1 15.5000 -39.8000 TS 35 13 290
1854258N13329 1854 11 NA NA NOT_NAMED 1854-09-17 03:00:00 TS 15.7422 -40.4001 main 1746 1726 _____________P -1 15.7422 -40.4001 TS 37 13 293
1854258N13329 1854 11 NA NA NOT_NAMED 1854-09-17 06:00:00 TS 16.0000 -41.0000 main 1727 1702 _____________O -1 16.0000 -41.0000 TS 40 13 293
1854258N13329 1854 11 NA NA NOT_NAMED 1854-09-17 09:00:00 TS 16.2499 -41.6501 main 1696 1680 _____________P -1 16.2499 -41.6501 TS 40 13 292
1854258N13329 1854 11 NA NA NOT_NAMED 1854-09-17 12:00:00 TS 16.5000 -42.3000 main 1683 1664 _____________O -1 16.5000 -42.3000 TS 40 13 291
1854258N13329 1854 11 NA NA NOT_NAMED 1854-09-17 15:00:00 TS 16.7197 -42.9005 main 1664 1649 _____________P -1 16.7197 -42.9005 TS 40 13 294
1854258N13329 1854 11 NA NA NOT_NAMED 1854-09-17 18:00:00 TS 17.0000 -43.5000 main 1652 1644 _____________O -1 17.0000 -43.5000 TS 40 14 301
1854258N13329 1854 11 NA NA NOT_NAMED 1854-09-17 21:00:00 TS 17.4274 -44.1424 main 1650 1647 _____________P -1 17.4274 -44.1424 TS 40 15 306
1854258N13329 1854 11 NA NA NOT_NAMED 1854-09-18 00:00:00 TS 17.9000 -44.8000 main 1655 1650 _____________O -1 17.9000 -44.8000 TS 40 15 305
1854258N13329 1854 11 NA NA NOT_NAMED 1854-09-18 03:00:00 TS 18.2848 -45.4506 main 1657 1652 _____________P -1 18.2848 -45.4506 TS 42 15 303
1854258N13329 1854 11 NA NA NOT_NAMED 1854-09-18 06:00:00 TS 18.7000 -46.1000 main 1667 1667 _____________O -1 18.7000 -46.1000 TS 45 16 307
1854258N13329 1854 11 NA NA NOT_NAMED 1854-09-18 09:00:00 TS 19.2653 -46.8093 main 1697 1693 _____________P -1 19.2653 -46.8093 TS 45 17 312
1854258N13329 1854 11 NA NA NOT_NAMED 1854-09-18 12:00:00 TS 19.8000 -47.4000 main 1721 1721 _____________O -1 19.8000 -47.4000 TS 45 12 316
1854258N13329 1854 11 NA NA NOT_NAMED 1854-09-18 15:00:00 TS 20.1445 -47.7107 main 1738 1738 _____________P -1 20.1445 -47.7107 TS 45 8 322
1854258N13329 1854 11 NA NA NOT_NAMED 1854-09-18 18:00:00 TS 20.4000 -47.9000 main 1760 1760 _____________O -1 20.4000 -47.9000 TS 45 7 321
1854258N13329 1854 11 NA NA NOT_NAMED 1854-09-18 21:00:00 TS 20.6499 -48.1427 main 1769 1765 _____________P -1 20.6499 -48.1427 TS 45 7 317
1854258N13329 1854 11 NA NA NOT_NAMED 1854-09-19 00:00:00 TS 20.9000 -48.4000 main 1765 1762 _____________O -1 20.9000 -48.4000 TS 45 8 317
1854258N13329 1854 11 NA NA NOT_NAMED 1854-09-19 03:00:00 TS 21.2000 -48.7000 main 1762 1760 _____________P -1 21.2000 -48.7000 TS 47 8 317
1854258N13329 1854 11 NA NA NOT_NAMED 1854-09-19 06:00:00 TS 21.5000 -49.0000 main 1760 1741 _____________O -1 21.5000 -49.0000 TS 50 8 315
1854258N13329 1854 11 NA NA NOT_NAMED 1854-09-19 09:00:00 TS 21.7350 -49.2727 main 1741 1724 _____________P -1 21.7350 -49.2727 TS 50 7 317
1854258N13329 1854 11 NA NA NOT_NAMED 1854-09-19 12:00:00 TS 22.0000 -49.5000 main 1726 1718 _____________O -1 22.0000 -49.5000 TS 50 7 331
1854258N13329 1854 11 NA NA NOT_NAMED 1854-09-19 15:00:00 TS 22.3849 -49.6576 main 1715 1712 _____________P -1 22.3849 -49.6576 TS 50 9 341
1854258N13329 1854 11 NA NA NOT_NAMED 1854-09-19 18:00:00 TS 22.8000 -49.8000 main 1715 1703 _____________O -1 22.8000 -49.8000 TS 50 8 338
1854258N13329 1854 11 NA NA NOT_NAMED 1854-09-19 21:00:00 TS 23.1575 -50.0000 main 1706 1693 _____________P -1 23.1575 -50.0000 TS 50 8 332
1854258N13329 1854 11 NA NA NOT_NAMED 1854-09-20 00:00:00 TS 23.5000 -50.2000 main 1696 1689 _____________O -1 23.5000 -50.2000 TS 50 8 335
1854258N13329 1854 11 NA NA NOT_NAMED 1854-09-20 03:00:00 TS 23.8500 -50.3576 main 1686 1686 _____________P -1 23.8500 -50.3576 TS 52 8 339
1854258N13329 1854 11 NA NA NOT_NAMED 1854-09-20 06:00:00 TS 24.2000 -50.5000 main 1691 1684 _____________O -1 24.2000 -50.5000 TS 55 8 338
1854258N13329 1854 11 NA NA NOT_NAMED 1854-09-20 09:00:00 TS 24.5425 -50.6650 main 1684 1684 _____________P -1 24.5425 -50.6650 TS 55 8 339
1854258N13329 1854 11 NA NA NOT_NAMED 1854-09-20 12:00:00 TS 24.9000 -50.8000 main 1691 1691 _____________O -1 24.9000 -50.8000 TS 55 8 347
1854258N13329 1854 11 NA NA NOT_NAMED 1854-09-20 15:00:00 TS 25.2925 -50.8577 main 1699 1699 _____________P -1 25.2925 -50.8577 TS 57 8 354
1854258N13329 1854 11 NA NA NOT_NAMED 1854-09-20 18:00:00 TS 25.7000 -50.9000 main 1718 1718 _____________O -1 25.7000 -50.9000 TS 60 8 351
1854258N13329 1854 11 NA NA NOT_NAMED 1854-09-20 21:00:00 TS 26.1000 -50.9925 main 1729 1729 _____________P -1 26.1000 -50.9925 TS 60 8 347
1854258N13329 1854 11 NA NA NOT_NAMED 1854-09-21 00:00:00 TS 26.5000 -51.1000 main 1741 1741 _____________O -1 26.5000 -51.1000 TS 60 8 347
1854258N13329 1854 11 NA NA NOT_NAMED 1854-09-21 03:00:00 TS 26.9075 -51.2000 main 1754 1754 _____________P -1 26.9075 -51.2000 TS 62 8 347
1854258N13329 1854 11 NA NA NOT_NAMED 1854-09-21 06:00:00 TS 27.3000 -51.3000 main 1768 1768 _____________O -1 27.3000 -51.3000 HU 65 8 345
1854258N13329 1854 11 NA NA NOT_NAMED 1854-09-21 09:00:00 TS 27.6350 -51.4150 main 1777 1777 _____________P -1 27.6350 -51.4150 HU 67 7 346
1854258N13329 1854 11 NA NA NOT_NAMED 1854-09-21 12:00:00 TS 28.0000 -51.5000 main 1793 1793 _____________O -1 28.0000 -51.5000 HU 70 9 354
1854258N13329 1854 11 NA NA NOT_NAMED 1854-09-21 15:00:00 TS 28.4850 -51.5152 main 1825 1825 _____________P -1 28.4850 -51.5152 HU 70 10 1
1854258N13329 1854 11 NA NA NOT_NAMED 1854-09-21 18:00:00 TS 29.0000 -51.5000 main 1857 1857 _____________O -1 29.0000 -51.5000 HU 70 10 0
1854258N13329 1854 11 NA NA NOT_NAMED 1854-09-21 21:00:00 TS 29.4575 -51.5074 main 1891 1865 _____________P -1 29.4575 -51.5074 HU 70 9 0
1854258N13329 1854 11 NA NA NOT_NAMED 1854-09-22 00:00:00 TS 29.9000 -51.5000 main 1865 1820 _____________O -1 29.9000 -51.5000 HU 70 9 3
1854258N13329 1854 11 NA NA NOT_NAMED 1854-09-22 03:00:00 TS 30.3425 -51.4502 main 1820 1765 _____________P -1 30.3425 -51.4502 HU 70 9 5
1854258N13329 1854 11 NA NA NOT_NAMED 1854-09-22 06:00:00 TS 30.8000 -51.4000 main 1765 1710 _____________O -1 30.8000 -51.4000 HU 70 10 2
1854258N13329 1854 11 NA NA NOT_NAMED 1854-09-22 09:00:00 TS 31.3075 -51.3998 main 1710 1654 _____________P -1 31.3075 -51.3998 HU 70 10 1
1854258N13329 1854 11 NA NA NOT_NAMED 1854-09-22 12:00:00 TS 31.8000 -51.4000 main 1654 1610 _____________O -1 31.8000 -51.4000 HU 70 9 2
1854258N13329 1854 11 NA NA NOT_NAMED 1854-09-22 15:00:00 TS 32.2150 -51.3501 main 1610 1566 _____________P -1 32.2150 -51.3501 HU 70 8 6
1854258N13329 1854 11 NA NA NOT_NAMED 1854-09-22 18:00:00 TS 32.6000 -51.3000 main 1566 1522 _____________O -1 32.6000 -51.3000 HU 70 8 3
1854258N13329 1854 11 NA NA NOT_NAMED 1854-09-22 21:00:00 TS 33.0000 -51.2998 main 1522 1477 _____________P -1 33.0000 -51.2998 HU 70 8 1
1854258N13329 1854 11 NA NA NOT_NAMED 1854-09-23 00:00:00 TS 33.4000 -51.3000 main 1477 1433 _____________O -1 33.4000 -51.3000 HU 70 8 3
1854258N13329 1854 11 NA NA NOT_NAMED 1854-09-23 03:00:00 TS 33.8000 -51.2502 main 1433 1390 _____________P -1 33.8000 -51.2502 HU 70 8 6
1854258N13329 1854 11 NA NA NOT_NAMED 1854-09-23 06:00:00 TS 34.2000 -51.2000 main 1390 1356 _____________O -1 34.2000 -51.2000 HU 70 7 359
1854258N13329 1854 11 NA NA NOT_NAMED 1854-09-23 09:00:00 TS 34.5098 -51.2506 main 1355 1301 _____________P -1 34.5098 -51.2506 HU 70 8 1
1854258N13329 1854 11 NA NA NOT_NAMED 1854-09-23 12:00:00 TS 35.0000 -51.2000 main 1301 1205 _____________O -1 35.0000 -51.2000 HU 70 14 13
1854258N13329 1854 11 NA NA NOT_NAMED 1854-09-23 15:00:00 TS 35.9103 -50.8687 main 1205 1101 _____________P -1 35.9103 -50.8687 HU 67 21 18
1854258N13329 1854 11 NA NA NOT_NAMED 1854-09-23 18:00:00 TS 37.0000 -50.4000 main 1092 1002 _____________O -1 37.0000 -50.4000 HU 65 994 22 18
1854258N13329 1854 11 NA NA NOT_NAMED 1854-09-23 21:00:00 TS 37.9993 -49.9997 main 991 904 _____________P -1 37.9993 -49.9997 HU 65 21 20
1854258N13329 1854 11 NA NA NOT_NAMED 1854-09-24 00:00:00 TS 39.0000 -49.5000 main 896 821 _____________O -1 39.0000 -49.5000 HU 65 22 25
1854258N13329 1854 11 NA NA NOT_NAMED 1854-09-24 03:00:00 TS 40.0003 -48.7947 main 814 753 _____________P -1 40.0003 -48.7947 HU 65 23 30
1854258N13329 1854 11 NA NA NOT_NAMED 1854-09-24 06:00:00 TS 41.0000 -48.0000 main 748 701 _____________O -1 41.0000 -48.0000 HU 65 23 30
1854258N13329 1854 11 NA NA NOT_NAMED 1854-09-24 09:00:00 TS 41.9995 -47.2477 main 697 661 _____________P -1 41.9995 -47.2477 HU 60 23 29
1854258N13329 1854 11 NA NA NOT_NAMED 1854-09-24 12:00:00 TS 43.0000 -46.5000 main 660 644 _____________O -1 43.0000 -46.5000 TS 55 23 29
1854258N13329 1854 11 NA NA NOT_NAMED 1854-09-24 15:00:00 TS 43.9995 -45.7475 main 646 639 _____________P -1 43.9995 -45.7475 TS 50 23 28
1854258N13329 1854 11 NA NA NOT_NAMED 1854-09-24 18:00:00 ET 45.0000 -45.0000 main 644 639 _____________O -1 45.0000 -45.0000 EX 45 23 28
1854258N13329 1854 11 NA NA NOT_NAMED 1854-09-24 21:00:00 ET 45.9995 -44.2473 main 658 655 _____________P -1 45.9995 -44.2473 EX 42 23 28
1854258N13329 1854 11 NA NA NOT_NAMED 1854-09-25 00:00:00 ET 47.0000 -43.5000 main 685 684 _____________O -1 47.0000 -43.5000 EX 40 22 27
1854258N13329 1854 11 NA NA NOT_NAMED 1854-09-25 03:00:00 ET 48.0009 -42.7559 main 731 731 _____________P -1 48.0009 -42.7559 EX 37 22 27
1854258N13329 1854 11 NA NA NOT_NAMED 1854-09-25 06:00:00 ET 49.0000 -42.0000 main 796 _____________O -1 49.0000 -42.0000 EX 35 22 26

IBTrACS Databaseについて

本データベースは、米国NOAAが公開する1842年以降の世界の熱帯低気圧のベストトラックデータアーカイブInternational Best Track Archive for Climate Stewardship (IBTrACS)を、ウェブで閲覧しやすい形式に変換したものです。

最終更新日:2021-12-06